sensor_id;sensor_type;location;lat;lon;timestamp;temperature;humidity
17671;DHT22;8954;48.694;8.940;2023-08-08T07:00:43;17.50;99.90
17671;DHT22;8954;48.694;8.940;2023-08-08T07:03:10;17.40;99.90
17671;DHT22;8954;48.694;8.940;2023-08-08T07:05:35;17.70;99.90
17671;DHT22;8954;48.694;8.940;2023-08-08T07:08:03;17.90;99.90
17671;DHT22;8954;48.694;8.940;2023-08-08T07:10:29;18.00;99.90
17671;DHT22;8954;48.694;8.940;2023-08-08T07:12:54;18.30;99.90
17671;DHT22;8954;48.694;8.940;2023-08-08T07:15:20;18.40;99.90
17671;DHT22;8954;48.694;8.940;2023-08-08T07:17:45;18.60;99.90
17671;DHT22;8954;48.694;8.940;2023-08-08T07:20:11;18.50;99.90
17671;DHT22;8954;48.694;8.940;2023-08-08T07:22:39;18.40;99.90
17671;DHT22;8954;48.694;8.940;2023-08-08T07:25:05;18.50;99.90
17671;DHT22;8954;48.694;8.940;2023-08-08T07:27:31;18.60;99.90
17671;DHT22;8954;48.694;8.940;2023-08-08T07:29:56;18.70;99.90
17671;DHT22;8954;48.694;8.940;2023-08-08T07:32:22;18.70;99.90
17671;DHT22;8954;48.694;8.940;2023-08-08T07:34:47;18.90;99.90
17671;DHT22;8954;48.694;8.940;2023-08-08T07:37:14;18.90;99.90
17671;DHT22;8954;48.694;8.940;2023-08-08T07:39:39;19.00;99.90
17671;DHT22;8954;48.694;8.940;2023-08-08T07:42:05;18.80;99.90
17671;DHT22;8954;48.694;8.940;2023-08-08T07:44:31;19.00;99.90
17671;DHT22;8954;48.694;8.940;2023-08-08T07:46:57;19.00;99.90
17671;DHT22;8954;48.694;8.940;2023-08-08T07:49:23;19.00;99.90
17671;DHT22;8954;48.694;8.940;2023-08-08T07:51:49;18.80;99.90
17671;DHT22;8954;48.694;8.940;2023-08-08T07:54:14;18.80;99.90
17671;DHT22;8954;48.694;8.940;2023-08-08T07:56:40;18.90;99.90
17671;DHT22;8954;48.694;8.940;2023-08-08T07:59:05;19.00;99.90
17671;DHT22;8954;48.694;8.940;2023-08-08T08:01:31;19.20;99.90
17671;DHT22;8954;48.694;8.940;2023-08-08T08:03:56;19.20;99.90
17671;DHT22;8954;48.694;8.940;2023-08-08T08:06:22;19.30;99.90
17671;DHT22;8954;48.694;8.940;2023-08-08T08:08:47;19.40;99.90
17671;DHT22;8954;48.694;8.940;2023-08-08T08:11:13;19.50;99.90
17671;DHT22;8954;48.694;8.940;2023-08-08T08:13:40;19.70;99.90
17671;DHT22;8954;48.694;8.940;2023-08-08T08:16:06;20.10;99.90
17671;DHT22;8954;48.694;8.940;2023-08-08T08:18:31;20.30;99.90
17671;DHT22;8954;48.694;8.940;2023-08-08T08:20:58;20.30;99.90
17671;DHT22;8954;48.694;8.940;2023-08-08T08:23:24;20.30;99.90
17671;DHT22;8954;48.694;8.940;2023-08-08T08:25:50;20.40;99.90
17671;DHT22;8954;48.694;8.940;2023-08-08T08:28:16;20.60;99.90
17671;DHT22;8954;48.694;8.940;2023-08-08T08:30:42;20.80;99.90
17671;DHT22;8954;48.694;8.940;2023-08-08T08:33:08;21.00;99.90
17671;DHT22;8954;48.694;8.940;2023-08-08T08:35:35;20.90;99.90
17671;DHT22;8954;48.694;8.940;2023-08-08T08:38:00;20.60;99.90
17671;DHT22;8954;48.694;8.940;2023-08-08T08:40:27;20.50;99.90
17671;DHT22;8954;48.694;8.940;2023-08-08T08:42:53;20.60;99.90
17671;DHT22;8954;48.694;8.940;2023-08-08T08:45:20;21.00;99.90
17671;DHT22;8954;48.694;8.940;2023-08-08T08:47:47;21.50;99.90
17671;DHT22;8954;48.694;8.940;2023-08-08T08:50:18;21.40;99.90
17671;DHT22;8954;48.694;8.940;2023-08-08T08:52:44;22.00;99.90
17671;DHT22;8954;48.694;8.940;2023-08-08T08:55:10;22.50;99.90
17671;DHT22;8954;48.694;8.940;2023-08-08T08:57:36;22.70;99.90
17671;DHT22;8954;48.694;8.940;2023-08-08T09:00:02;22.70;99.90
17671;DHT22;8954;48.694;8.940;2023-08-08T09:02:28;23.20;99.90
17671;DHT22;8954;48.694;8.940;2023-08-08T09:04:54;23.40;99.90
17671;DHT22;8954;48.694;8.940;2023-08-08T09:07:22;23.90;99.90
17671;DHT22;8954;48.694;8.940;2023-08-08T09:09:52;24.30;99.90
17671;DHT22;8954;48.694;8.940;2023-08-08T09:12:18;25.30;99.90
17671;DHT22;8954;48.694;8.940;2023-08-08T09:14:44;25.30;98.50
17671;DHT22;8954;48.694;8.940;2023-08-08T09:17:13;25.10;96.00
17671;DHT22;8954;48.694;8.940;2023-08-08T09:19:42;24.90;96.80
17671;DHT22;8954;48.694;8.940;2023-08-08T09:22:09;25.20;95.40
17671;DHT22;8954;48.694;8.940;2023-08-08T09:24:41;25.10;96.40
17671;DHT22;8954;48.694;8.940;2023-08-08T09:27:09;26.30;95.60
17671;DHT22;8954;48.694;8.940;2023-08-08T09:29:38;27.30;92.50
17671;DHT22;8954;48.694;8.940;2023-08-08T09:32:05;27.40;91.80
17671;DHT22;8954;48.694;8.940;2023-08-08T09:34:30;28.20;87.20
17671;DHT22;8954;48.694;8.940;2023-08-08T09:36:56;27.60;86.70
17671;DHT22;8954;48.694;8.940;2023-08-08T09:39:22;27.20;88.10
17671;DHT22;8954;48.694;8.940;2023-08-08T09:41:47;27.70;86.80
17671;DHT22;8954;48.694;8.940;2023-08-08T09:44:13;27.70;85.30
17671;DHT22;8954;48.694;8.940;2023-08-08T09:46:39;27.80;85.40
17671;DHT22;8954;48.694;8.940;2023-08-08T09:49:06;28.70;83.50
17671;DHT22;8954;48.694;8.940;2023-08-08T09:51:33;29.10;82.00
17671;DHT22;8954;48.694;8.940;2023-08-08T09:53:59;29.00;78.60
17671;DHT22;8954;48.694;8.940;2023-08-08T09:56:26;28.70;78.30
17671;DHT22;8954;48.694;8.940;2023-08-08T09:58:52;28.40;78.70
17671;DHT22;8954;48.694;8.940;2023-08-08T10:01:19;28.60;78.90
17671;DHT22;8954;48.694;8.940;2023-08-08T10:03:45;29.60;77.60
17671;DHT22;8954;48.694;8.940;2023-08-08T10:06:14;29.80;74.80
17671;DHT22;8954;48.694;8.940;2023-08-08T10:08:39;28.10;77.60
17671;DHT22;8954;48.694;8.940;2023-08-08T10:11:07;28.00;78.10
17671;DHT22;8954;48.694;8.940;2023-08-08T10:13:35;28.70;77.20
17671;DHT22;8954;48.694;8.940;2023-08-08T10:16:07;28.90;72.80
17671;DHT22;8954;48.694;8.940;2023-08-08T10:18:33;28.40;74.00
17671;DHT22;8954;48.694;8.940;2023-08-08T10:20:59;28.50;72.40
17671;DHT22;8954;48.694;8.940;2023-08-08T10:23:24;28.40;74.20
17671;DHT22;8954;48.694;8.940;2023-08-08T10:25:51;28.60;72.90
17671;DHT22;8954;48.694;8.940;2023-08-08T10:28:19;27.90;73.20
17671;DHT22;8954;48.694;8.940;2023-08-08T10:30:57;27.70;74.40
17671;DHT22;8954;48.694;8.940;2023-08-08T10:33:25;28.30;73.80
17671;DHT22;8954;48.694;8.940;2023-08-08T10:35:56;28.70;70.50
17671;DHT22;8954;48.694;8.940;2023-08-08T10:38:26;29.30;68.00
17671;DHT22;8954;48.694;8.940;2023-08-08T10:41:03;30.10;69.00
17671;DHT22;8954;48.694;8.940;2023-08-08T10:43:29;30.80;67.10
17671;DHT22;8954;48.694;8.940;2023-08-08T10:46:04;31.20;64.00
17671;DHT22;8954;48.694;8.940;2023-08-08T10:48:30;29.20;65.60
17671;DHT22;8954;48.694;8.940;2023-08-08T10:50:59;28.50;68.30
17671;DHT22;8954;48.694;8.940;2023-08-08T10:53:26;29.90;67.30
17671;DHT22;8954;48.694;8.940;2023-08-08T10:56:01;31.50;62.10
17671;DHT22;8954;48.694;8.940;2023-08-08T10:58:41;31.70;62.00
17671;DHT22;8954;48.694;8.940;2023-08-08T11:01:07;32.00;60.60
17671;DHT22;8954;48.694;8.940;2023-08-08T11:03:38;31.80;60.40
17671;DHT22;8954;48.694;8.940;2023-08-08T11:06:09;31.80;60.30
17671;DHT22;8954;48.694;8.940;2023-08-08T11:08:35;31.70;59.90
17671;DHT22;8954;48.694;8.940;2023-08-08T11:11:05;32.70;59.50
17671;DHT22;8954;48.694;8.940;2023-08-08T11:13:31;34.30;57.20
17671;DHT22;8954;48.694;8.940;2023-08-08T11:15:57;35.00;54.20
17671;DHT22;8954;48.694;8.940;2023-08-08T11:18:23;35.70;53.50
17671;DHT22;8954;48.694;8.940;2023-08-08T11:20:49;36.70;52.60
17671;DHT22;8954;48.694;8.940;2023-08-08T11:23:16;33.30;53.80
17671;DHT22;8954;48.694;8.940;2023-08-08T11:25:44;31.40;56.20
17671;DHT22;8954;48.694;8.940;2023-08-08T11:28:10;31.90;59.50
17671;DHT22;8954;48.694;8.940;2023-08-08T11:30:43;35.00;54.10
17671;DHT22;8954;48.694;8.940;2023-08-08T11:33:10;36.20;51.20
17671;DHT22;8954;48.694;8.940;2023-08-08T11:35:36;35.10;52.70
17671;DHT22;8954;48.694;8.940;2023-08-08T11:38:03;32.90;53.60
17671;DHT22;8954;48.694;8.940;2023-08-08T11:40:30;31.50;56.40
17671;DHT22;8954;48.694;8.940;2023-08-08T11:42:57;31.70;56.40
17671;DHT22;8954;48.694;8.940;2023-08-08T11:45:23;31.10;56.10
17671;DHT22;8954;48.694;8.940;2023-08-08T11:47:50;30.20;57.50
17671;DHT22;8954;48.694;8.940;2023-08-08T11:50:16;31.20;57.70
17671;DHT22;8954;48.694;8.940;2023-08-08T11:52:44;33.00;54.70
17671;DHT22;8954;48.694;8.940;2023-08-08T11:55:11;34.30;54.10
17671;DHT22;8954;48.694;8.940;2023-08-08T11:57:38;35.10;52.00
17671;DHT22;8954;48.694;8.940;2023-08-08T12:00:09;33.50;53.60
17671;DHT22;8954;48.694;8.940;2023-08-08T12:02:39;32.60;55.70
17671;DHT22;8954;48.694;8.940;2023-08-08T12:05:06;32.20;55.60
17671;DHT22;8954;48.694;8.940;2023-08-08T12:07:33;33.20;55.20
17671;DHT22;8954;48.694;8.940;2023-08-08T12:10:00;33.10;55.20
17671;DHT22;8954;48.694;8.940;2023-08-08T12:12:27;32.10;56.50
17671;DHT22;8954;48.694;8.940;2023-08-08T12:14:54;30.50;58.20
17671;DHT22;8954;48.694;8.940;2023-08-08T12:17:21;29.10;60.80
17671;DHT22;8954;48.694;8.940;2023-08-08T12:19:47;27.80;63.10
17671;DHT22;8954;48.694;8.940;2023-08-08T12:22:13;27.90;63.10
17671;DHT22;8954;48.694;8.940;2023-08-08T12:24:40;27.70;63.20
17671;DHT22;8954;48.694;8.940;2023-08-08T12:27:06;28.00;63.10
17671;DHT22;8954;48.694;8.940;2023-08-08T12:29:31;29.70;63.50
17671;DHT22;8954;48.694;8.940;2023-08-08T12:31:57;30.90;58.50
17671;DHT22;8954;48.694;8.940;2023-08-08T12:34:22;32.30;57.40
17671;DHT22;8954;48.694;8.940;2023-08-08T12:36:48;32.90;56.80
17671;DHT22;8954;48.694;8.940;2023-08-08T12:39:14;32.80;56.00
17671;DHT22;8954;48.694;8.940;2023-08-08T12:41:39;31.60;57.10
17671;DHT22;8954;48.694;8.940;2023-08-08T12:44:05;30.70;58.50
17671;DHT22;8954;48.694;8.940;2023-08-08T12:46:31;29.50;58.50
17671;DHT22;8954;48.694;8.940;2023-08-08T12:48:56;27.90;62.50
17671;DHT22;8954;48.694;8.940;2023-08-08T12:51:22;26.60;65.00
17671;DHT22;8954;48.694;8.940;2023-08-08T12:53:48;25.50;69.00
17671;DHT22;8954;48.694;8.940;2023-08-08T12:56:14;24.70;70.10
17671;DHT22;8954;48.694;8.940;2023-08-08T12:58:39;24.40;71.30
17671;DHT22;8954;48.694;8.940;2023-08-08T13:01:06;24.40;72.80
